Nearby METAR Reports

 

EGTE - Exeter Airport, United Kingdom
Distance from station: S 19km
Updated: 21/07/2018 12:20
Mostly cloudy
Mostly cloudy
 Wind from varies
Wind: varies 6 km/h
Temperature: 21°C
Dew Point: 16°C
Humidity: 73%
Barometer: 1015 hPa
Clouds: Mostly cloudy
Visibility: 10 km
Cloud details: Mostly cloudy 610 m
2018/07/21 11:20 EGTE 211120Z VRB03KT 9999 BKN020 21/16 Q1015
EGDY - Yeovilton (navy), United Kingdom
Distance from station: ENE 55km
Updated: 21/07/2018 11:50
Partly cloudy
Partly cloudy
 Wind from NW
Wind: NW 9 km/h
Temperature: 22°C
Dew Point: 14°C
Humidity: 61%
Barometer: 1014 hPa
Clouds: Partly cloudy
Visibility: 10 km
Cloud details: Few Clouds 975 m
Partly cloudy 1219 m
2018/07/21 10:50 EGDY 211050Z 31005KT 9999 FEW032 SCT040 22/14 Q1014 BLU
 
EGFF - Cardiff-Wales Ar, United Kingdom
Distance from station: N 56km
Updated: 21/07/2018 12:20
Clear
Clear
 Wind from SSE
Wind: SSE 9 km/h
Temperature: 22°C
Dew Point: 14°C
Humidity: 61%
Barometer: 1015 hPa
Clouds: Clear
Visibility: 10 km
2018/07/21 11:20 EGFF 211120Z AUTO 15005KT 100V200 9999 NCD 22/14 Q1015
EGDX - St Athan Raf, United Kingdom
Distance from station: N 58km
Updated: 21/07/2018 11:50
Partly cloudy
Partly cloudy
 Wind from SSE
Wind: SSE 11 km/h
Temperature: 21°C
Dew Point: 14°C
Humidity: 64%
Barometer: 1014 hPa
Clouds: Partly cloudy
Visibility: 10 km
Cloud details: Partly cloudy 549 m
2018/07/21 10:50 EGDX 211050Z 16006KT 9999 SCT018 21/14 Q1014 WHT
 
EGGD - Bristol/Lulsgate, United Kingdom
Distance from station: NE 71km
Updated: 21/07/2018 12:20
Partly cloudy
Partly cloudy
 Wind from varies
Wind: varies 6 km/h
Temperature: 23°C
Dew Point: 15°C
Humidity: 61%
Barometer: 1015 hPa
Clouds: Partly cloudy
Visibility: 10 km
Cloud details: Partly cloudy 914 m
2018/07/21 11:20 EGGD 211120Z VRB03KT 9999 SCT030 23/15 Q1015